Packwaukee, WI (53953)

1:52 PM CDT on August 04, 2015 (GMT -0500)
WIDOT | | Change Station
CLOSE
Current Station
Personal Weather Station
Location: Packwaukee, WI
Elevation: 850 ft
Nearby Weather Stations

Elev 850 ft 43.79 °N, 89.48 °W | Updated 39 minutes ago

Scattered Clouds
Scattered Clouds
76.0 °F
Feels Like 76.0 °F
N
0.0
Wind Variable Wind from North
Gusts 0.0 mph

Today
High -- | Low -- °F
--% Chance of Precip.
Yesterday
High -- | Low -- °F
Precip. -- in
5:49 AM 8:17 PM
Waning Gibbous, 75% visible
Pressure 29.98 in
Visibility 10.0 miles
Clouds Scattered Clouds 5500 ft
Scattered Clouds 7000 ft
Dew Point 45.0 °F
Humidity 33%
Rainfall in
Snow Depth Not available.
UV 8 out of 12
Pollen 7.50 out of 12
Air Quality Not available.
Flu Activity Not available.
METAR KY50 041756Z AUTO 33012G17KT 10SM SCT055 SCT070 25/10 A2998 RMK AO2

More Conditions Fewer Conditions

Pressure 29.98 in
Visibility 10.0 miles
Clouds Scattered Clouds 5500 ft
Scattered Clouds 7000 ft
Dew Point 45.0 °F
Humidity 33%
Rainfall in
Snow Depth Not available.
UV 8 out of 12
Pollen 7.50 out of 12
Air Quality Not available.
Flu Activity Not available.
METAR KY50 041756Z AUTO 33012G17KT 10SM SCT055 SCT070 25/10 A2998 RMK AO2

More Conditions Fewer Conditions

10-Day Weather Forecast

×

Almanac

Astronomy

Aug. 04, 2015 Rise Set
Actual Time
Civil Twilight
Nautical Twilight
Astronomical Twilight
Moon
Length of Visible Light
Length of Day
Tomorrow will be .
, % of the Moon is Illuminated

Today's Extremes

State Highs State Lows

Community

WunderPhotos

Upload Photos

1,843,937 photos uploaded!

WunderBlogs® & News

Nearby

Air Quality

  Air Quality AQ Index Pollutant
Not available.

Snow Depth

Station Depth Elevation

Earthquake Activity

City Distance Mag. Time & Date
Minimum magnitude displayed is 2.5.

Coastal Water Temperatures

Place Temperature

Stations

Nearby Weather Stations

Station Location Temp. Windchill Dew Point Humidity Wind Precip. Elev Updated Type